createdAt,value
2022-08-11T00:00:15.758Z,95.90
2022-08-11T00:02:49.871Z,95.90
2022-08-11T00:05:22.299Z,96.00
2022-08-11T00:07:54.397Z,96.20
2022-08-11T00:10:26.930Z,96.40
2022-08-11T00:12:58.725Z,96.40
2022-08-11T00:15:37.771Z,96.80
2022-08-11T00:18:07.232Z,97.00
2022-08-11T00:20:42.455Z,97.10
2022-08-11T00:23:18.198Z,97.10
2022-08-11T00:25:52.854Z,97.60
2022-08-11T00:28:31.203Z,97.80
2022-08-11T00:31:04.257Z,98.10
2022-08-11T00:33:41.395Z,98.80
2022-08-11T00:36:22.057Z,99.30
2022-08-11T00:38:56.572Z,99.70
2022-08-11T00:41:37.665Z,99.90
2022-08-11T00:44:26.094Z,99.90
2022-08-11T00:47:11.903Z,99.90
2022-08-11T00:49:54.367Z,99.90
2022-08-11T00:52:51.795Z,99.90
2022-08-11T00:55:59.700Z,99.90
2022-08-11T00:59:35.184Z,99.90
2022-08-11T01:02:18.413Z,99.90
2022-08-11T01:05:35.532Z,99.90
2022-08-11T01:08:42.039Z,99.90
2022-08-11T01:11:57.497Z,99.90
2022-08-11T01:15:25.529Z,99.90
2022-08-11T01:18:49.119Z,99.90
2022-08-11T01:22:11.672Z,99.90
2022-08-11T01:25:23.041Z,99.90
2022-08-11T01:28:32.016Z,99.90
2022-08-11T01:31:48.439Z,99.90
2022-08-11T01:35:15.049Z,99.90
2022-08-11T01:38:44.035Z,99.90
2022-08-11T01:41:48.147Z,99.90
2022-08-11T01:44:57.002Z,99.90
2022-08-11T01:47:54.715Z,99.90
2022-08-11T01:50:40.981Z,99.90
2022-08-11T01:53:40.120Z,99.90
2022-08-11T01:56:34.184Z,99.90
2022-08-11T01:59:16.713Z,99.90
2022-08-11T02:02:21.521Z,99.90
2022-08-11T02:05:04.228Z,99.90
2022-08-11T02:07:53.469Z,99.90
2022-08-11T02:10:53.584Z,99.90
2022-08-11T02:13:43.409Z,99.90
2022-08-11T02:16:29.244Z,99.90
2022-08-11T02:19:40.914Z,99.90
2022-08-11T02:22:45.579Z,99.90
2022-08-11T02:25:31.837Z,99.90
2022-08-11T02:28:09.455Z,99.90
2022-08-11T02:32:25.283Z,99.90
2022-08-11T02:34:24.172Z,99.90
2022-08-11T02:37:02.007Z,99.90
2022-08-11T02:39:41.861Z,99.90
2022-08-11T02:42:32.665Z,99.90
2022-08-11T02:45:38.551Z,99.90
2022-08-11T02:48:38.591Z,99.90
2022-08-11T02:51:22.111Z,99.90
2022-08-11T02:54:06.691Z,99.90
2022-08-11T02:56:52.313Z,99.90
2022-08-11T02:59:53.113Z,99.90
2022-08-11T03:02:49.961Z,99.90
2022-08-11T03:05:48.361Z,99.90
2022-08-11T03:08:40.706Z,99.90
2022-08-11T03:11:44.557Z,99.90
2022-08-11T03:14:40.108Z,99.90
2022-08-11T03:17:29.434Z,99.90
2022-08-11T03:20:23.203Z,99.90
2022-08-11T03:23:04.385Z,99.90
2022-08-11T03:25:59.633Z,99.90
2022-08-11T03:28:35.927Z,99.90
2022-08-11T03:31:24.697Z,99.90
2022-08-11T03:34:07.086Z,99.90
2022-08-11T03:37:16.571Z,99.90
2022-08-11T03:40:04.513Z,99.90
2022-08-11T03:42:46.717Z,99.90
2022-08-11T03:45:34.457Z,99.90
2022-08-11T03:48:20.740Z,99.90
2022-08-11T03:51:04.177Z,99.90
2022-08-11T03:53:56.844Z,99.90
2022-08-11T03:57:19.740Z,99.90
2022-08-11T04:00:39.978Z,99.90
2022-08-11T04:03:59.430Z,99.90
2022-08-11T04:07:17.626Z,99.90
2022-08-11T04:10:30.135Z,99.90
2022-08-11T04:13:41.254Z,99.90
2022-08-11T04:16:29.903Z,99.90
2022-08-11T04:19:50.957Z,99.90
2022-08-11T04:23:03.241Z,99.90
2022-08-11T04:26:18.857Z,99.90
2022-08-11T04:29:04.391Z,99.90
2022-08-11T04:32:02.028Z,99.90
2022-08-11T04:35:00.403Z,99.90
2022-08-11T04:38:06.717Z,99.90
2022-08-11T04:41:21.074Z,99.90
2022-08-11T04:44:32.632Z,99.90
2022-08-11T04:48:01.691Z,99.90
2022-08-11T04:51:16.989Z,99.90
2022-08-11T04:54:19.509Z,99.90
2022-08-11T04:57:10.004Z,99.90
2022-08-11T05:00:23.011Z,99.90
2022-08-11T05:03:47.481Z,99.90
2022-08-11T05:07:20.631Z,99.90
2022-08-11T05:10:15.744Z,99.90
2022-08-11T05:12:50.579Z,99.90
2022-08-11T05:15:49.620Z,99.90
2022-08-11T05:18:43.230Z,99.90
2022-08-11T05:21:44.941Z,99.90
2022-08-11T05:24:40.810Z,99.50
2022-08-11T05:27:30.813Z,99.40
2022-08-11T05:30:25.088Z,99.60
2022-08-11T05:33:21.250Z,99.00
2022-08-11T05:36:03.263Z,98.00
2022-08-11T05:38:55.287Z,97.00
2022-08-11T05:41:45.540Z,96.40
2022-08-11T05:44:39.233Z,95.90
2022-08-11T05:47:27.666Z,93.90
2022-08-11T05:50:15.324Z,93.50
2022-08-11T05:53:09.005Z,92.60
2022-08-11T05:56:03.715Z,92.10
2022-08-11T05:58:42.268Z,90.80
2022-08-11T06:01:14.299Z,87.40
2022-08-11T06:04:04.349Z,87.00
2022-08-11T06:06:33.861Z,85.50
2022-08-11T06:09:03.413Z,82.30
2022-08-11T06:11:43.719Z,78.40
2022-08-11T06:14:16.336Z,73.70
2022-08-11T06:16:50.958Z,68.90
2022-08-11T06:19:24.505Z,66.70
2022-08-11T06:21:54.166Z,66.30
2022-08-11T06:24:23.069Z,63.10
2022-08-11T06:27:11.931Z,61.80
2022-08-11T06:29:54.960Z,61.90
2022-08-11T06:32:27.858Z,62.30
2022-08-11T06:35:14.250Z,63.10
2022-08-11T06:37:59.134Z,63.80
2022-08-11T06:40:42.861Z,62.90
2022-08-11T06:43:22.783Z,61.80
2022-08-11T06:46:03.106Z,62.20
2022-08-11T06:48:34.475Z,62.20
2022-08-11T06:51:14.147Z,62.20
2022-08-11T06:54:03.094Z,61.00
2022-08-11T06:57:12.565Z,60.60
2022-08-11T07:00:04.219Z,62.10
2022-08-11T07:02:38.116Z,61.80
2022-08-11T07:05:13.471Z,62.10
2022-08-11T07:08:54.669Z,62.00
2022-08-11T07:12:19.353Z,61.20
2022-08-11T07:15:11.644Z,63.30
2022-08-11T07:17:49.175Z,62.90
2022-08-11T07:20:36.570Z,61.90
2022-08-11T07:23:28.053Z,61.20
2022-08-11T07:26:19.318Z,63.10
2022-08-11T07:28:58.616Z,63.20
2022-08-11T07:31:42.133Z,62.50
2022-08-11T07:34:21.201Z,61.50
2022-08-11T07:36:54.733Z,61.20
2022-08-11T07:39:27.348Z,61.00
2022-08-11T07:41:59.200Z,59.90
2022-08-11T07:44:34.731Z,60.20
2022-08-11T07:47:24.017Z,60.90
2022-08-11T07:50:12.879Z,58.80
2022-08-11T07:52:41.584Z,58.80
2022-08-11T07:55:16.779Z,57.80
2022-08-11T07:58:16.018Z,56.60
2022-08-11T08:01:21.634Z,56.60
2022-08-11T08:04:10.636Z,56.50
2022-08-11T08:06:58.961Z,57.70
2022-08-11T08:09:45.319Z,57.70
2022-08-11T08:12:33.319Z,58.30
2022-08-11T08:15:26.205Z,57.20
2022-08-11T08:18:20.826Z,57.90
2022-08-11T08:20:50.798Z,58.20
2022-08-11T08:23:33.244Z,57.90
2022-08-11T08:26:27.211Z,57.70
2022-08-11T08:29:19.240Z,56.40
2022-08-11T08:31:48.494Z,55.60
2022-08-11T08:34:19.076Z,57.20
2022-08-11T08:36:52.014Z,58.00
2022-08-11T08:39:22.377Z,58.40
2022-08-11T08:41:56.448Z,59.40
2022-08-11T08:44:38.295Z,59.80
2022-08-11T08:47:41.054Z,58.90
2022-08-11T08:50:16.584Z,57.90
2022-08-11T08:52:57.136Z,56.70
2022-08-11T08:55:29.779Z,54.90
2022-08-11T08:58:01.024Z,54.90
2022-08-11T09:00:41.988Z,54.80
2022-08-11T09:03:40.634Z,54.20
2022-08-11T09:06:00.800Z,53.90
2022-08-11T09:08:33.689Z,53.00
2022-08-11T09:11:22.303Z,54.30
2022-08-11T09:14:04.969Z,54.10
2022-08-11T09:16:36.538Z,53.40
2022-08-11T09:19:06.051Z,53.30
2022-08-11T09:21:48.837Z,53.70
2022-08-11T09:24:38.500Z,55.40
2022-08-11T09:27:09.360Z,55.70
2022-08-11T09:29:39.805Z,55.40
2022-08-11T09:32:08.925Z,54.60
2022-08-11T09:34:39.932Z,56.50
2022-08-11T09:37:55.482Z,57.30
2022-08-11T09:40:31.537Z,57.80
2022-08-11T09:43:23.789Z,56.00
2022-08-11T09:45:55.044Z,56.40
2022-08-11T09:48:27.589Z,52.80
2022-08-11T09:50:59.863Z,53.50
2022-08-11T09:53:41.213Z,53.40
2022-08-11T09:56:34.855Z,54.00
2022-08-11T09:59:05.839Z,54.50
2022-08-11T10:01:42.582Z,53.80
2022-08-11T10:04:19.042Z,52.90
2022-08-11T10:07:06.817Z,53.30
2022-08-11T10:09:41.687Z,53.60
2022-08-11T10:12:15.435Z,55.90
2022-08-11T10:15:07.207Z,55.50
2022-08-11T10:18:02.786Z,56.20
2022-08-11T10:20:36.193Z,56.70
2022-08-11T10:23:24.031Z,57.30
2022-08-11T10:26:06.765Z,56.30
2022-08-11T10:29:02.172Z,55.80
2022-08-11T10:31:57.230Z,54.20
2022-08-11T10:34:29.377Z,53.90
2022-08-11T10:37:02.952Z,54.60
2022-08-11T10:39:32.117Z,54.30
2022-08-11T10:42:30.262Z,53.90
2022-08-11T10:45:31.118Z,53.30
2022-08-11T10:47:59.893Z,54.10
2022-08-11T10:50:47.708Z,56.10
2022-08-11T10:53:36.303Z,54.90
2022-08-11T10:56:24.361Z,55.80
2022-08-11T10:58:57.536Z,56.90
2022-08-11T11:01:34.058Z,57.10
2022-08-11T11:04:11.984Z,57.10
2022-08-11T11:06:53.794Z,57.60
2022-08-11T11:09:32.470Z,57.10
2022-08-11T11:12:29.644Z,56.60
2022-08-11T11:15:18.102Z,56.80
2022-08-11T11:17:57.928Z,56.70
2022-08-11T11:20:36.357Z,57.30
2022-08-11T11:23:18.547Z,57.80
2022-08-11T11:26:41.348Z,58.20
2022-08-11T11:29:42.295Z,56.40
2022-08-11T11:32:25.577Z,56.70
2022-08-11T11:35:26.770Z,56.40
2022-08-11T11:38:04.449Z,56.40
2022-08-11T11:40:35.512Z,56.90
2022-08-11T11:43:05.210Z,56.90
2022-08-11T11:45:33.878Z,56.50
2022-08-11T11:48:03.399Z,56.90
2022-08-11T11:50:37.587Z,56.50
2022-08-11T11:53:11.465Z,56.30
2022-08-11T11:55:41.248Z,56.60
2022-08-11T11:58:28.294Z,56.10
2022-08-11T12:01:15.728Z,56.60
2022-08-11T12:03:47.879Z,56.60
2022-08-11T12:06:23.160Z,56.30
2022-08-11T12:08:55.950Z,57.40
2022-08-11T12:11:44.914Z,57.40
2022-08-11T12:14:17.473Z,57.90
2022-08-11T12:16:49.905Z,57.10
2022-08-11T12:19:24.754Z,57.30
2022-08-11T12:22:15.217Z,57.70
2022-08-11T12:25:01.718Z,57.50
2022-08-11T12:27:32.335Z,57.10
2022-08-11T12:30:06.404Z,56.00
2022-08-11T12:32:38.791Z,56.50
2022-08-11T12:35:09.635Z,57.50
2022-08-11T12:37:45.337Z,57.80
2022-08-11T12:40:49.953Z,57.40
2022-08-11T12:43:46.392Z,57.40
2022-08-11T12:46:32.462Z,57.30
2022-08-11T12:49:30.716Z,55.60
2022-08-11T12:52:14.856Z,55.10
2022-08-11T12:54:57.548Z,55.80
2022-08-11T12:57:53.943Z,56.20
2022-08-11T13:00:41.491Z,56.20
2022-08-11T13:03:30.459Z,56.70
2022-08-11T13:06:03.428Z,56.80
2022-08-11T13:08:37.685Z,56.20
2022-08-11T13:11:55.803Z,55.20
2022-08-11T13:14:17.985Z,55.60
2022-08-11T13:17:05.331Z,56.00
2022-08-11T13:19:35.984Z,55.40
2022-08-11T13:22:07.269Z,55.50
2022-08-11T13:24:37.660Z,56.40
2022-08-11T13:27:08.565Z,55.30
2022-08-11T13:29:38.503Z,55.80
2022-08-11T13:32:08.396Z,55.90
2022-08-11T13:34:41.617Z,55.80
2022-08-11T13:37:14.326Z,56.30
2022-08-11T13:39:47.300Z,55.60
2022-08-11T13:42:21.747Z,54.90
2022-08-11T13:44:51.381Z,54.80
2022-08-11T13:47:23.577Z,55.50
2022-08-11T13:49:53.481Z,54.60
2022-08-11T13:52:22.311Z,55.30
2022-08-11T13:54:53.361Z,55.10
2022-08-11T13:58:07.541Z,55.40
2022-08-11T14:00:24.907Z,55.50
2022-08-11T14:02:58.576Z,55.70
2022-08-11T14:05:30.202Z,55.30
2022-08-11T14:08:04.664Z,55.30
2022-08-11T14:10:38.866Z,54.90
2022-08-11T14:13:42.690Z,55.70
2022-08-11T14:16:21.883Z,56.00
2022-08-11T14:18:55.880Z,55.50
2022-08-11T14:21:44.153Z,55.50
2022-08-11T14:24:14.143Z,55.20
2022-08-11T14:26:44.215Z,55.10
2022-08-11T14:31:57.963Z,55.10
2022-08-11T14:34:30.191Z,54.40
2022-08-11T14:37:05.159Z,54.50
2022-08-11T14:39:39.170Z,54.70
2022-08-11T14:42:28.791Z,54.70
2022-08-11T14:45:57.903Z,54.30
2022-08-11T14:48:18.416Z,53.90
2022-08-11T14:50:48.137Z,54.40
2022-08-11T14:53:17.744Z,54.20
2022-08-11T14:56:05.591Z,54.40
2022-08-11T14:58:35.375Z,54.00
2022-08-11T15:01:27.407Z,53.40
2022-08-11T15:04:34.365Z,54.20
2022-08-11T15:06:45.069Z,54.20
2022-08-11T15:09:13.453Z,54.30
2022-08-11T15:12:00.416Z,54.40
2022-08-11T15:14:46.513Z,55.00
2022-08-11T15:17:17.363Z,54.60
2022-08-11T15:20:01.983Z,54.30
2022-08-11T15:22:48.298Z,54.50
2022-08-11T15:25:17.260Z,54.00
2022-08-11T15:28:09.008Z,54.30
2022-08-11T15:30:56.591Z,54.40
2022-08-11T15:33:48.946Z,53.90
2022-08-11T15:36:35.105Z,54.70
2022-08-11T15:39:20.615Z,55.10
2022-08-11T15:42:16.117Z,55.00
2022-08-11T15:45:11.585Z,55.40
2022-08-11T15:47:47.357Z,55.10
2022-08-11T15:50:21.844Z,55.30
2022-08-11T15:52:59.043Z,55.40
2022-08-11T15:55:32.275Z,54.40
2022-08-11T15:58:21.981Z,53.90
2022-08-11T16:01:09.876Z,54.30
2022-08-11T16:04:14.054Z,54.50
2022-08-11T16:06:58.435Z,54.50
2022-08-11T16:09:47.053Z,54.30
2022-08-11T16:12:22.848Z,54.40
2022-08-11T16:15:20.567Z,54.40
2022-08-11T16:17:55.074Z,54.20
2022-08-11T16:20:28.260Z,54.70
2022-08-11T16:23:04.302Z,55.10
2022-08-11T16:27:02.680Z,55.20
2022-08-11T16:28:29.181Z,55.00
2022-08-11T16:30:58.682Z,54.80
2022-08-11T16:33:49.847Z,55.00
2022-08-11T16:36:37.204Z,55.20
2022-08-11T16:39:09.038Z,55.10
2022-08-11T16:41:59.384Z,55.10
2022-08-11T16:44:47.855Z,55.10
2022-08-11T16:48:02.110Z,55.10
2022-08-11T16:50:12.224Z,55.70
2022-08-11T16:52:42.118Z,55.90
2022-08-11T16:55:11.916Z,55.70
2022-08-11T16:58:18.269Z,56.20
2022-08-11T17:00:52.015Z,55.40
2022-08-11T17:03:40.438Z,55.90
2022-08-11T17:06:30.605Z,56.20
2022-08-11T17:09:21.714Z,56.60
2022-08-11T17:12:17.468Z,56.20
2022-08-11T17:14:54.187Z,56.40
2022-08-11T17:17:29.681Z,56.50
2022-08-11T17:20:41.721Z,56.90
2022-08-11T17:23:15.267Z,57.50
2022-08-11T17:26:00.433Z,57.70
2022-08-11T17:28:36.229Z,58.10
2022-08-11T17:31:24.156Z,58.40
2022-08-11T17:34:15.686Z,58.30
2022-08-11T17:36:46.026Z,58.90
2022-08-11T17:39:16.270Z,58.90
2022-08-11T17:42:03.921Z,58.90
2022-08-11T17:44:53.518Z,59.00
2022-08-11T17:47:40.635Z,59.10
2022-08-11T17:50:17.189Z,59.60
2022-08-11T17:53:06.047Z,59.30
2022-08-11T17:55:56.051Z,59.30
2022-08-11T17:58:45.950Z,59.30
2022-08-11T18:01:17.979Z,59.70
2022-08-11T18:03:57.772Z,59.80
2022-08-11T18:06:34.375Z,59.50
2022-08-11T18:09:28.102Z,59.90
2022-08-11T18:12:17.523Z,58.70
2022-08-11T18:15:07.871Z,57.50
2022-08-11T18:17:56.338Z,57.90
2022-08-11T18:20:43.509Z,57.20
2022-08-11T18:23:40.339Z,57.60
2022-08-11T18:26:37.966Z,57.20
2022-08-11T18:29:27.227Z,57.10
2022-08-11T18:32:20.723Z,57.20
2022-08-11T18:35:14.773Z,57.40
2022-08-11T18:38:07.705Z,57.50
2022-08-11T18:40:55.052Z,57.80
2022-08-11T18:43:45.773Z,58.00
2022-08-11T18:46:37.003Z,58.20
2022-08-11T18:50:02.001Z,58.30
2022-08-11T18:52:43.233Z,58.60
2022-08-11T18:55:33.723Z,58.20
2022-08-11T18:58:25.734Z,58.30
2022-08-11T19:01:17.060Z,58.40
2022-08-11T19:04:10.631Z,58.50
2022-08-11T19:07:01.363Z,58.20
2022-08-11T19:09:50.231Z,58.30
2022-08-11T19:12:38.765Z,58.60
2022-08-11T19:15:28.471Z,58.40
2022-08-11T19:18:17.063Z,58.60
2022-08-11T19:21:04.673Z,58.70
2022-08-11T19:23:57.975Z,59.30
2022-08-11T19:26:47.579Z,59.30
2022-08-11T19:30:07.542Z,59.90
2022-08-11T19:32:49.770Z,60.80
2022-08-11T19:35:38.230Z,62.60
2022-08-11T19:38:25.130Z,64.00
2022-08-11T19:41:12.799Z,64.70
2022-08-11T19:44:06.087Z,65.60
2022-08-11T19:46:54.904Z,66.40
2022-08-11T19:49:42.484Z,67.10
2022-08-11T19:52:29.783Z,67.00
2022-08-11T19:55:17.536Z,67.60
2022-08-11T19:58:05.193Z,68.00
2022-08-11T20:00:53.800Z,68.20
2022-08-11T20:03:40.195Z,68.50
2022-08-11T20:06:29.637Z,68.80
2022-08-11T20:09:20.208Z,69.10
2022-08-11T20:12:11.938Z,69.40
2022-08-11T20:15:02.435Z,69.70
2022-08-11T20:17:56.204Z,70.30
2022-08-11T20:20:46.226Z,70.70
2022-08-11T20:23:36.375Z,71.30
2022-08-11T20:26:31.177Z,71.70
2022-08-11T20:29:20.098Z,72.20
2022-08-11T20:32:09.819Z,72.50
2022-08-11T20:34:59.858Z,73.00
2022-08-11T20:37:51.291Z,73.10
2022-08-11T20:40:41.249Z,73.80
2022-08-11T20:44:05.877Z,74.00
2022-08-11T20:46:41.473Z,74.30
2022-08-11T20:49:44.289Z,75.10
2022-08-11T20:52:38.805Z,75.60
2022-08-11T20:55:52.271Z,75.90
2022-08-11T20:59:04.078Z,76.70
2022-08-11T21:01:45.309Z,77.10
2022-08-11T21:04:32.392Z,77.80
2022-08-11T21:07:39.349Z,78.20
2022-08-11T21:10:30.830Z,78.60
2022-08-11T21:13:26.843Z,78.50
2022-08-11T21:16:25.221Z,79.30
2022-08-11T21:20:00.361Z,80.10
2022-08-11T21:22:35.731Z,80.80
2022-08-11T21:25:27.977Z,81.20
2022-08-11T21:28:20.701Z,81.50
2022-08-11T21:31:10.206Z,81.70
2022-08-11T21:33:58.863Z,82.70
2022-08-11T21:36:46.946Z,82.70
2022-08-11T21:39:38.601Z,83.20
2022-08-11T21:42:26.483Z,83.60
2022-08-11T21:45:16.549Z,83.70
2022-08-11T21:48:05.074Z,84.40
2022-08-11T21:50:51.044Z,85.00
2022-08-11T21:53:38.386Z,85.30
2022-08-11T21:56:27.528Z,86.00
2022-08-11T21:59:16.166Z,86.20
2022-08-11T22:02:05.385Z,86.40
2022-08-11T22:04:55.431Z,86.90
2022-08-11T22:07:42.471Z,87.50
2022-08-11T22:10:41.862Z,88.20
2022-08-11T22:13:30.429Z,88.40
2022-08-11T22:16:17.933Z,89.40
2022-08-11T22:19:08.039Z,89.70
2022-08-11T22:22:01.511Z,90.00
2022-08-11T22:24:52.803Z,90.20
2022-08-11T22:27:40.552Z,90.40
2022-08-11T22:30:29.489Z,90.70
2022-08-11T22:33:25.735Z,91.00
2022-08-11T22:36:17.762Z,91.40
2022-08-11T22:39:06.721Z,91.70
2022-08-11T22:41:52.771Z,92.00
2022-08-11T22:44:38.615Z,92.10
2022-08-11T22:47:38.269Z,92.50
2022-08-11T22:50:30.694Z,92.70
2022-08-11T22:53:20.129Z,92.90
2022-08-11T22:56:08.355Z,93.10
2022-08-11T22:58:54.726Z,93.50
2022-08-11T23:01:56.379Z,93.60
2022-08-11T23:04:44.579Z,94.00
2022-08-11T23:07:50.038Z,93.80
2022-08-11T23:10:40.105Z,93.90
2022-08-11T23:13:28.115Z,94.40
2022-08-11T23:16:15.687Z,94.40
2022-08-11T23:19:03.431Z,94.40
2022-08-11T23:21:50.934Z,94.20
2022-08-11T23:24:39.187Z,93.70
2022-08-11T23:27:28.045Z,94.20
2022-08-11T23:30:19.024Z,94.50
2022-08-11T23:33:13.093Z,94.20
2022-08-11T23:36:05.372Z,93.60
2022-08-11T23:38:52.288Z,94.00
2022-08-11T23:41:38.860Z,94.20
2022-08-11T23:44:27.659Z,93.80
2022-08-11T23:47:18.810Z,94.10
2022-08-11T23:50:06.236Z,93.70
2022-08-11T23:52:53.476Z,93.40
2022-08-11T23:55:40.515Z,93.60
2022-08-11T23:58:28.025Z,93.10
